EDT,Max TemperatureF,Mean TemperatureF,Min TemperatureF,Max Dew PointF,MeanDew PointF,Min DewpointF,Max Humidity, Mean Humidity, Min Humidity, Max Sea Level PressureIn, Mean Sea Level PressureIn, Min Sea Level PressureIn, Max VisibilityMiles, Mean VisibilityMiles, Min VisibilityMiles, Max Wind SpeedMPH, Mean Wind SpeedMPH, Max Gust SpeedMPH,PrecipitationIn, CloudCover, Events, WindDirDegrees
2013-9-1,82,76,71,73,70,52,96,86,48,29.88,29.83,29.80,10,7,2,13,3,22,0.00,6,Rain-Thunderstorm,150
2013-9-2,79,76,72,73,72,69,97,89,76,29.82,29.77,29.71,9,4,0,6,3,,0.04,5,Fog-Rain,140
2013-9-3,79,72,66,71,64,54,97,76,46,29.88,29.78,29.71,10,6,0,14,5,24,0.01,5,Fog-Rain,316
2013-9-4,80,70,61,58,55,50,84,61,38,29.99,29.94,29.87,10,10,10,13,6,17,0.00,0,,283
2013-9-5,75,65,54,59,52,42,84,61,40,30.15,30.00,29.91,10,10,10,12,4,20,0.00,2,,338
2013-9-6,69,60,50,49,42,38,86,56,33,30.25,30.19,30.13,10,10,10,13,7,,0.00,0,,336
2013-9-7,78,64,51,57,48,43,89,58,30,30.12,30.02,29.89,10,10,10,10,5,,0.00,2,Rain,263
2013-9-8,81,70,57,62,53,42,80,57,36,30.08,29.89,29.82,10,10,10,17,6,22,0.00,3,,316
2013-9-9,71,60,50,58,46,40,80,59,43,30.25,30.18,30.09,10,10,10,9,5,,0.00,1,,120
2013-9-10,82,73,64,70,66,58,93,81,66,30.16,30.11,30.06,10,8,5,8,4,17,0.03,4,Rain,183
2013-9-11,93,80,70,74,71,68,94,76,54,30.11,30.05,29.98,9,5,1,12,3,20,0.00,0,,203
2013-9-12,82,75,68,71,69,64,100,83,65,29.96,29.83,29.70,10,5,0,15,3,22,0.20,4,Rain-Thunderstorm,184
2013-9-13,75,65,57,66,60,50,94,80,55,29.83,29.69,29.63,10,9,2,16,6,28,0.56,4,Rain,305
2013-9-14,64,58,51,49,46,45,83,68,53,30.12,29.98,29.84,10,10,10,16,10,22,0.03,3,,317
2013-9-15,69,57,46,54,46,41,87,68,37,30.22,30.14,30.09,10,10,10,8,5,,0.01,2,,312
2013-9-16,71,62,53,55,51,42,87,70,50,30.25,30.09,30.04,10,10,10,14,5,20,0.01,4,,332
2013-9-17,63,52,43,44,39,34,86,62,39,30.43,30.36,30.27,10,10,10,13,8,23,0.00,0,,6
2013-9-18,70,57,45,50,44,39,93,67,33,30.35,30.27,30.19,10,10,10,7,3,,0.01,0,,297
2013-9-19,75,62,50,54,48,43,93,66,31,30.19,30.13,30.07,10,10,10,7,4,,0.00,0,,278
2013-9-20,78,64,52,57,54,49,94,76,37,30.09,30.05,30.01,10,9,2,12,3,,0.00,0,,183
2013-9-21,73,62,52,67,61,51,100,87,73,30.01,29.87,29.67,10,7,1,17,5,28,0.00,6,Rain,162
2013-9-22,68,60,51,66,50,41,93,69,47,29.91,29.76,29.65,10,9,3,18,8,29,0.00,4,Rain,306
2013-9-23,64,55,46,43,41,38,80,63,41,30.05,29.98,29.91,10,10,10,16,7,24,0.00,1,,331
2013-9-24,70,54,39,50,43,38,93,69,38,30.05,29.97,29.88,10,10,10,12,4,,0.00,0,,303
2013-9-25,69,58,48,53,46,41,84,64,40,29.96,29.93,29.88,10,10,10,13,8,,0.00,0,,322
2013-9-26,68,58,51,54,51,47,87,76,58,30.11,30.02,29.94,10,10,10,8,5,,0.00,4,,12
2013-9-27,64,57,50,52,50,47,93,75,58,30.27,30.20,30.11,10,10,10,7,4,,0.00,5,,8
2013-9-28,71,61,51,52,50,48,89,72,49,30.32,30.28,30.25,10,10,10,9,5,,0.00,1,,18
2013-9-29,68,58,50,55,51,47,93,79,56,30.24,30.16,30.10,10,10,10,12,3,,0.00,2,,108
2013-9-30,70,58,48,54,50,46,93,75,49,30.09,30.04,29.98,10,10,10,8,4,,0.00,1,,288